sensor_id;sensor_type;location;lat;lon;timestamp;P1;durP1;ratioP1;P2;durP2;ratioP2
28756;SDS011;44294;48.282;14.282;2023-01-04T00:00:27;18.87;;;12.13;;
28756;SDS011;44294;48.282;14.282;2023-01-04T00:03:14;17.53;;;11.77;;
28756;SDS011;44294;48.282;14.282;2023-01-04T00:06:02;17.83;;;11.40;;
28756;SDS011;44294;48.282;14.282;2023-01-04T00:08:50;22.83;;;13.17;;
28756;SDS011;44294;48.282;14.282;2023-01-04T00:11:38;17.50;;;11.20;;
28756;SDS011;44294;48.282;14.282;2023-01-04T00:14:25;17.57;;;11.27;;
28756;SDS011;44294;48.282;14.282;2023-01-04T00:17:13;16.70;;;10.33;;
28756;SDS011;44294;48.282;14.282;2023-01-04T00:20:00;16.43;;;10.83;;
28756;SDS011;44294;48.282;14.282;2023-01-04T00:22:47;15.77;;;10.90;;
28756;SDS011;44294;48.282;14.282;2023-01-04T00:25:37;15.20;;;9.47;;
28756;SDS011;44294;48.282;14.282;2023-01-04T00:28:24;17.53;;;10.47;;
28756;SDS011;44294;48.282;14.282;2023-01-04T00:31:11;18.23;;;11.40;;
28756;SDS011;44294;48.282;14.282;2023-01-04T00:34:00;18.33;;;11.23;;
28756;SDS011;44294;48.282;14.282;2023-01-04T00:36:47;19.77;;;12.57;;
28756;SDS011;44294;48.282;14.282;2023-01-04T00:39:35;18.23;;;11.83;;
28756;SDS011;44294;48.282;14.282;2023-01-04T00:42:22;18.17;;;11.57;;
28756;SDS011;44294;48.282;14.282;2023-01-04T00:45:09;16.10;;;9.93;;
28756;SDS011;44294;48.282;14.282;2023-01-04T00:47:56;16.80;;;11.10;;
28756;SDS011;44294;48.282;14.282;2023-01-04T00:50:44;15.60;;;10.30;;
28756;SDS011;44294;48.282;14.282;2023-01-04T00:53:32;15.90;;;10.53;;
28756;SDS011;44294;48.282;14.282;2023-01-04T00:56:19;16.20;;;10.40;;
28756;SDS011;44294;48.282;14.282;2023-01-04T00:59:06;16.47;;;10.33;;
28756;SDS011;44294;48.282;14.282;2023-01-04T01:01:53;15.13;;;9.83;;
28756;SDS011;44294;48.282;14.282;2023-01-04T01:04:41;14.20;;;10.23;;
28756;SDS011;44294;48.282;14.282;2023-01-04T01:07:28;15.43;;;10.30;;
28756;SDS011;44294;48.282;14.282;2023-01-04T01:10:15;16.53;;;10.40;;
28756;SDS011;44294;48.282;14.282;2023-01-04T01:13:03;18.30;;;11.07;;
28756;SDS011;44294;48.282;14.282;2023-01-04T01:15:50;18.77;;;11.03;;
28756;SDS011;44294;48.282;14.282;2023-01-04T01:18:38;16.60;;;10.40;;
28756;SDS011;44294;48.282;14.282;2023-01-04T01:21:26;15.23;;;9.90;;
28756;SDS011;44294;48.282;14.282;2023-01-04T01:24:15;17.33;;;10.90;;
28756;SDS011;44294;48.282;14.282;2023-01-04T01:27:03;16.60;;;10.23;;
28756;SDS011;44294;48.282;14.282;2023-01-04T01:29:50;15.47;;;10.13;;
28756;SDS011;44294;48.282;14.282;2023-01-04T01:32:38;15.57;;;10.00;;
28756;SDS011;44294;48.282;14.282;2023-01-04T01:35:25;16.43;;;9.90;;
28756;SDS011;44294;48.282;14.282;2023-01-04T01:38:12;16.37;;;10.60;;
28756;SDS011;44294;48.282;14.282;2023-01-04T01:40:59;17.00;;;10.07;;
28756;SDS011;44294;48.282;14.282;2023-01-04T01:43:51;14.53;;;9.47;;
28756;SDS011;44294;48.282;14.282;2023-01-04T01:46:39;16.97;;;10.20;;
28756;SDS011;44294;48.282;14.282;2023-01-04T01:49:36;16.33;;;10.00;;
28756;SDS011;44294;48.282;14.282;2023-01-04T01:52:21;15.67;;;10.23;;
28756;SDS011;44294;48.282;14.282;2023-01-04T01:55:08;15.47;;;10.27;;
28756;SDS011;44294;48.282;14.282;2023-01-04T01:57:57;16.77;;;11.00;;
28756;SDS011;44294;48.282;14.282;2023-01-04T02:00:45;16.47;;;10.13;;
28756;SDS011;44294;48.282;14.282;2023-01-04T02:03:36;14.97;;;9.77;;
28756;SDS011;44294;48.282;14.282;2023-01-04T02:06:28;17.40;;;10.77;;
28756;SDS011;44294;48.282;14.282;2023-01-04T02:09:15;15.90;;;10.23;;
28756;SDS011;44294;48.282;14.282;2023-01-04T02:12:04;16.20;;;10.00;;
28756;SDS011;44294;48.282;14.282;2023-01-04T02:14:51;15.90;;;10.10;;
28756;SDS011;44294;48.282;14.282;2023-01-04T02:17:41;15.80;;;10.20;;
28756;SDS011;44294;48.282;14.282;2023-01-04T02:33:06;14.90;;;9.87;;
28756;SDS011;44294;48.282;14.282;2023-01-04T02:35:18;14.93;;;9.97;;
28756;SDS011;44294;48.282;14.282;2023-01-04T02:38:08;15.70;;;9.90;;
28756;SDS011;44294;48.282;14.282;2023-01-04T02:41:02;15.17;;;9.97;;
28756;SDS011;44294;48.282;14.282;2023-01-04T02:43:54;15.80;;;10.33;;
28756;SDS011;44294;48.282;14.282;2023-01-04T02:47:06;16.80;;;10.20;;
28756;SDS011;44294;48.282;14.282;2023-01-04T02:49:51;16.80;;;10.43;;
28756;SDS011;44294;48.282;14.282;2023-01-04T02:53:39;15.50;;;10.00;;
28756;SDS011;44294;48.282;14.282;2023-01-04T03:01:49;15.30;;;10.00;;
28756;SDS011;44294;48.282;14.282;2023-01-04T03:07:53;20.30;;;11.83;;
28756;SDS011;44294;48.282;14.282;2023-01-04T03:10:44;17.13;;;10.13;;
28756;SDS011;44294;48.282;14.282;2023-01-04T03:13:34;20.33;;;13.13;;
28756;SDS011;44294;48.282;14.282;2023-01-04T03:16:22;19.07;;;11.97;;
28756;SDS011;44294;48.282;14.282;2023-01-04T03:19:11;16.63;;;11.27;;
28756;SDS011;44294;48.282;14.282;2023-01-04T03:22:00;20.97;;;12.63;;
28756;SDS011;44294;48.282;14.282;2023-01-04T03:24:48;19.90;;;12.23;;
28756;SDS011;44294;48.282;14.282;2023-01-04T03:27:40;17.60;;;11.80;;
28756;SDS011;44294;48.282;14.282;2023-01-04T03:30:50;19.80;;;12.30;;
28756;SDS011;44294;48.282;14.282;2023-01-04T03:33:54;19.63;;;12.67;;
28756;SDS011;44294;48.282;14.282;2023-01-04T03:40:04;19.73;;;11.97;;
28756;SDS011;44294;48.282;14.282;2023-01-04T03:43:06;18.83;;;12.37;;
28756;SDS011;44294;48.282;14.282;2023-01-04T03:46:24;18.30;;;11.83;;
28756;SDS011;44294;48.282;14.282;2023-01-04T03:49:26;19.93;;;11.83;;
28756;SDS011;44294;48.282;14.282;2023-01-04T03:52:12;19.20;;;12.00;;
28756;SDS011;44294;48.282;14.282;2023-01-04T03:55:00;20.30;;;12.20;;
28756;SDS011;44294;48.282;14.282;2023-01-04T03:57:49;17.27;;;11.33;;
28756;SDS011;44294;48.282;14.282;2023-01-04T04:00:37;17.27;;;10.93;;
28756;SDS011;44294;48.282;14.282;2023-01-04T04:03:24;17.60;;;11.60;;
28756;SDS011;44294;48.282;14.282;2023-01-04T04:06:11;17.33;;;11.53;;
28756;SDS011;44294;48.282;14.282;2023-01-04T04:09:17;17.70;;;11.63;;
28756;SDS011;44294;48.282;14.282;2023-01-04T04:12:04;18.50;;;12.07;;
28756;SDS011;44294;48.282;14.282;2023-01-04T04:14:51;20.33;;;12.17;;
28756;SDS011;44294;48.282;14.282;2023-01-04T04:17:39;18.77;;;11.87;;
28756;SDS011;44294;48.282;14.282;2023-01-04T04:20:26;16.80;;;11.47;;
28756;SDS011;44294;48.282;14.282;2023-01-04T04:23:13;17.27;;;11.63;;
28756;SDS011;44294;48.282;14.282;2023-01-04T04:26:02;19.00;;;12.10;;
28756;SDS011;44294;48.282;14.282;2023-01-04T04:28:50;19.77;;;11.73;;
28756;SDS011;44294;48.282;14.282;2023-01-04T04:31:37;17.13;;;11.20;;
28756;SDS011;44294;48.282;14.282;2023-01-04T04:34:25;19.17;;;11.87;;
28756;SDS011;44294;48.282;14.282;2023-01-04T04:37:12;19.87;;;12.10;;
28756;SDS011;44294;48.282;14.282;2023-01-04T04:40:00;17.00;;;11.10;;
28756;SDS011;44294;48.282;14.282;2023-01-04T04:42:47;18.40;;;11.60;;
28756;SDS011;44294;48.282;14.282;2023-01-04T04:45:34;18.03;;;10.83;;
28756;SDS011;44294;48.282;14.282;2023-01-04T04:48:21;18.07;;;11.30;;
28756;SDS011;44294;48.282;14.282;2023-01-04T04:51:09;16.40;;;11.00;;
28756;SDS011;44294;48.282;14.282;2023-01-04T04:53:56;19.33;;;12.20;;
28756;SDS011;44294;48.282;14.282;2023-01-04T04:56:43;19.03;;;11.80;;
28756;SDS011;44294;48.282;14.282;2023-01-04T04:59:31;17.70;;;11.27;;
28756;SDS011;44294;48.282;14.282;2023-01-04T05:02:18;19.83;;;11.83;;
28756;SDS011;44294;48.282;14.282;2023-01-04T05:05:05;18.07;;;11.83;;
28756;SDS011;44294;48.282;14.282;2023-01-04T05:07:53;17.63;;;11.57;;
28756;SDS011;44294;48.282;14.282;2023-01-04T05:10:40;19.20;;;12.40;;
28756;SDS011;44294;48.282;14.282;2023-01-04T05:13:27;18.90;;;11.90;;
28756;SDS011;44294;48.282;14.282;2023-01-04T05:16:15;20.37;;;12.80;;
28756;SDS011;44294;48.282;14.282;2023-01-04T05:19:02;18.33;;;11.73;;
28756;SDS011;44294;48.282;14.282;2023-01-04T05:21:49;21.20;;;12.43;;
28756;SDS011;44294;48.282;14.282;2023-01-04T05:24:37;19.13;;;11.60;;
28756;SDS011;44294;48.282;14.282;2023-01-04T05:27:24;21.67;;;12.77;;
28756;SDS011;44294;48.282;14.282;2023-01-04T05:30:12;20.17;;;12.50;;
28756;SDS011;44294;48.282;14.282;2023-01-04T05:33:19;20.57;;;12.17;;
28756;SDS011;44294;48.282;14.282;2023-01-04T05:36:06;19.30;;;11.77;;
28756;SDS011;44294;48.282;14.282;2023-01-04T05:38:54;20.33;;;12.37;;
28756;SDS011;44294;48.282;14.282;2023-01-04T05:41:41;22.03;;;13.63;;
28756;SDS011;44294;48.282;14.282;2023-01-04T05:44:46;20.30;;;13.00;;
28756;SDS011;44294;48.282;14.282;2023-01-04T05:47:34;18.10;;;11.77;;
28756;SDS011;44294;48.282;14.282;2023-01-04T05:50:22;22.00;;;12.87;;
28756;SDS011;44294;48.282;14.282;2023-01-04T05:53:11;20.53;;;12.63;;
28756;SDS011;44294;48.282;14.282;2023-01-04T05:55:58;21.33;;;13.03;;
28756;SDS011;44294;48.282;14.282;2023-01-04T05:58:45;20.33;;;12.43;;
28756;SDS011;44294;48.282;14.282;2023-01-04T06:01:33;21.07;;;12.73;;
28756;SDS011;44294;48.282;14.282;2023-01-04T06:04:20;18.80;;;12.37;;
28756;SDS011;44294;48.282;14.282;2023-01-04T06:07:07;20.80;;;12.90;;
28756;SDS011;44294;48.282;14.282;2023-01-04T06:09:55;21.37;;;12.70;;
28756;SDS011;44294;48.282;14.282;2023-01-04T06:12:42;21.57;;;13.00;;
28756;SDS011;44294;48.282;14.282;2023-01-04T06:15:29;22.37;;;12.63;;
28756;SDS011;44294;48.282;14.282;2023-01-04T06:18:17;20.07;;;12.30;;
28756;SDS011;44294;48.282;14.282;2023-01-04T06:21:04;20.50;;;12.87;;
28756;SDS011;44294;48.282;14.282;2023-01-04T06:23:51;18.87;;;12.23;;
28756;SDS011;44294;48.282;14.282;2023-01-04T06:26:39;19.80;;;12.67;;
28756;SDS011;44294;48.282;14.282;2023-01-04T06:29:26;22.03;;;12.33;;
28756;SDS011;44294;48.282;14.282;2023-01-04T06:32:13;20.03;;;12.93;;
28756;SDS011;44294;48.282;14.282;2023-01-04T06:35:01;18.33;;;12.10;;
28756;SDS011;44294;48.282;14.282;2023-01-04T06:37:48;20.93;;;13.30;;
28756;SDS011;44294;48.282;14.282;2023-01-04T06:40:36;20.37;;;12.73;;
28756;SDS011;44294;48.282;14.282;2023-01-04T06:43:23;19.50;;;12.40;;
28756;SDS011;44294;48.282;14.282;2023-01-04T06:46:10;21.73;;;12.80;;
28756;SDS011;44294;48.282;14.282;2023-01-04T06:48:58;22.33;;;12.40;;
28756;SDS011;44294;48.282;14.282;2023-01-04T06:51:46;20.53;;;13.27;;
28756;SDS011;44294;48.282;14.282;2023-01-04T06:54:33;20.00;;;13.10;;
28756;SDS011;44294;48.282;14.282;2023-01-04T06:57:21;20.53;;;12.90;;
28756;SDS011;44294;48.282;14.282;2023-01-04T07:00:08;22.30;;;13.53;;
28756;SDS011;44294;48.282;14.282;2023-01-04T07:02:55;21.40;;;13.47;;
28756;SDS011;44294;48.282;14.282;2023-01-04T07:05:43;23.07;;;13.63;;
28756;SDS011;44294;48.282;14.282;2023-01-04T07:08:30;23.83;;;13.67;;
28756;SDS011;44294;48.282;14.282;2023-01-04T07:11:18;21.17;;;13.27;;
28756;SDS011;44294;48.282;14.282;2023-01-04T07:14:05;21.30;;;13.30;;
28756;SDS011;44294;48.282;14.282;2023-01-04T07:16:52;23.27;;;14.00;;
28756;SDS011;44294;48.282;14.282;2023-01-04T07:19:40;22.70;;;14.07;;
28756;SDS011;44294;48.282;14.282;2023-01-04T07:22:27;21.67;;;13.23;;
28756;SDS011;44294;48.282;14.282;2023-01-04T07:25:14;23.77;;;14.37;;
28756;SDS011;44294;48.282;14.282;2023-01-04T07:28:02;23.87;;;14.00;;
28756;SDS011;44294;48.282;14.282;2023-01-04T07:30:49;23.63;;;13.07;;
28756;SDS011;44294;48.282;14.282;2023-01-04T07:33:36;23.40;;;13.73;;
28756;SDS011;44294;48.282;14.282;2023-01-04T07:36:24;23.27;;;13.60;;
28756;SDS011;44294;48.282;14.282;2023-01-04T07:39:11;25.40;;;14.60;;
28756;SDS011;44294;48.282;14.282;2023-01-04T07:41:59;23.33;;;13.27;;
28756;SDS011;44294;48.282;14.282;2023-01-04T07:44:46;25.40;;;14.80;;
28756;SDS011;44294;48.282;14.282;2023-01-04T07:47:33;23.33;;;14.83;;
28756;SDS011;44294;48.282;14.282;2023-01-04T07:50:21;24.20;;;14.43;;
28756;SDS011;44294;48.282;14.282;2023-01-04T07:53:08;25.40;;;14.77;;
28756;SDS011;44294;48.282;14.282;2023-01-04T07:55:55;26.40;;;14.63;;
28756;SDS011;44294;48.282;14.282;2023-01-04T07:58:43;25.97;;;15.53;;
28756;SDS011;44294;48.282;14.282;2023-01-04T08:01:30;27.50;;;15.73;;
28756;SDS011;44294;48.282;14.282;2023-01-04T08:04:21;26.40;;;15.43;;
28756;SDS011;44294;48.282;14.282;2023-01-04T08:07:08;24.43;;;15.17;;
28756;SDS011;44294;48.282;14.282;2023-01-04T08:09:56;25.10;;;14.47;;
28756;SDS011;44294;48.282;14.282;2023-01-04T08:12:43;27.17;;;15.63;;
28756;SDS011;44294;48.282;14.282;2023-01-04T08:15:31;29.87;;;16.70;;
28756;SDS011;44294;48.282;14.282;2023-01-04T08:18:18;29.80;;;16.77;;
28756;SDS011;44294;48.282;14.282;2023-01-04T08:21:06;32.07;;;17.80;;
28756;SDS011;44294;48.282;14.282;2023-01-04T08:23:54;31.97;;;16.47;;
28756;SDS011;44294;48.282;14.282;2023-01-04T08:26:42;27.90;;;15.20;;
28756;SDS011;44294;48.282;14.282;2023-01-04T08:29:29;27.67;;;15.20;;
28756;SDS011;44294;48.282;14.282;2023-01-04T08:32:17;26.73;;;14.83;;
28756;SDS011;44294;48.282;14.282;2023-01-04T08:35:04;26.67;;;14.53;;
28756;SDS011;44294;48.282;14.282;2023-01-04T08:37:51;30.20;;;14.97;;
28756;SDS011;44294;48.282;14.282;2023-01-04T08:40:39;24.50;;;13.90;;
28756;SDS011;44294;48.282;14.282;2023-01-04T08:43:26;27.63;;;14.17;;
28756;SDS011;44294;48.282;14.282;2023-01-04T08:46:13;25.87;;;13.93;;
28756;SDS011;44294;48.282;14.282;2023-01-04T08:49:01;28.70;;;13.33;;
28756;SDS011;44294;48.282;14.282;2023-01-04T08:51:48;27.80;;;14.47;;
28756;SDS011;44294;48.282;14.282;2023-01-04T08:54:35;32.10;;;15.93;;
28756;SDS011;44294;48.282;14.282;2023-01-04T08:57:23;30.23;;;15.57;;
28756;SDS011;44294;48.282;14.282;2023-01-04T09:00:10;29.70;;;15.50;;
28756;SDS011;44294;48.282;14.282;2023-01-04T09:02:58;30.47;;;15.23;;
28756;SDS011;44294;48.282;14.282;2023-01-04T09:05:45;33.77;;;16.07;;
28756;SDS011;44294;48.282;14.282;2023-01-04T09:08:33;33.23;;;16.93;;
28756;SDS011;44294;48.282;14.282;2023-01-04T09:11:20;35.60;;;18.23;;
28756;SDS011;44294;48.282;14.282;2023-01-04T09:14:08;33.67;;;16.07;;
28756;SDS011;44294;48.282;14.282;2023-01-04T09:16:56;29.37;;;15.37;;
28756;SDS011;44294;48.282;14.282;2023-01-04T09:19:43;31.97;;;16.57;;
28756;SDS011;44294;48.282;14.282;2023-01-04T09:22:30;39.70;;;17.67;;
28756;SDS011;44294;48.282;14.282;2023-01-04T09:25:18;44.77;;;22.07;;
28756;SDS011;44294;48.282;14.282;2023-01-04T09:28:05;38.07;;;19.53;;
28756;SDS011;44294;48.282;14.282;2023-01-04T09:30:52;34.53;;;17.47;;
28756;SDS011;44294;48.282;14.282;2023-01-04T09:33:40;36.90;;;18.40;;
28756;SDS011;44294;48.282;14.282;2023-01-04T09:36:28;47.43;;;22.87;;
28756;SDS011;44294;48.282;14.282;2023-01-04T09:39:15;39.70;;;19.67;;
28756;SDS011;44294;48.282;14.282;2023-01-04T09:42:04;51.87;;;22.43;;
28756;SDS011;44294;48.282;14.282;2023-01-04T09:44:53;42.33;;;20.07;;
28756;SDS011;44294;48.282;14.282;2023-01-04T09:53:38;36.77;;;18.53;;
28756;SDS011;44294;48.282;14.282;2023-01-04T09:56:35;40.33;;;18.77;;
28756;SDS011;44294;48.282;14.282;2023-01-04T09:59:24;35.37;;;15.97;;
28756;SDS011;44294;48.282;14.282;2023-01-04T10:02:12;33.17;;;17.10;;
28756;SDS011;44294;48.282;14.282;2023-01-04T10:05:00;29.80;;;14.87;;
28756;SDS011;44294;48.282;14.282;2023-01-04T10:07:48;46.17;;;19.33;;
28756;SDS011;44294;48.282;14.282;2023-01-04T10:10:45;33.17;;;15.90;;
28756;SDS011;44294;48.282;14.282;2023-01-04T10:13:33;29.00;;;14.70;;
28756;SDS011;44294;48.282;14.282;2023-01-04T10:19:27;34.13;;;16.37;;
28756;SDS011;44294;48.282;14.282;2023-01-04T10:22:14;37.70;;;16.47;;
28756;SDS011;44294;48.282;14.282;2023-01-04T10:31:08;32.13;;;15.90;;
28756;SDS011;44294;48.282;14.282;2023-01-04T10:36:59;29.57;;;15.37;;
28756;SDS011;44294;48.282;14.282;2023-01-04T10:39:50;26.83;;;14.97;;
28756;SDS011;44294;48.282;14.282;2023-01-04T10:42:39;26.90;;;13.30;;
28756;SDS011;44294;48.282;14.282;2023-01-04T10:45:29;20.10;;;11.17;;
28756;SDS011;44294;48.282;14.282;2023-01-04T10:48:20;21.57;;;11.20;;
28756;SDS011;44294;48.282;14.282;2023-01-04T10:51:06;20.73;;;11.27;;
28756;SDS011;44294;48.282;14.282;2023-01-04T10:53:54;18.13;;;10.43;;
28756;SDS011;44294;48.282;14.282;2023-01-04T10:56:50;20.47;;;11.07;;
28756;SDS011;44294;48.282;14.282;2023-01-04T11:02:35;18.50;;;10.23;;
28756;SDS011;44294;48.282;14.282;2023-01-04T11:05:23;16.83;;;9.63;;
28756;SDS011;44294;48.282;14.282;2023-01-04T11:08:12;33.00;;;17.03;;
28756;SDS011;44294;48.282;14.282;2023-01-04T11:11:07;47.33;;;25.67;;
28756;SDS011;44294;48.282;14.282;2023-01-04T11:13:53;16.57;;;10.33;;
28756;SDS011;44294;48.282;14.282;2023-01-04T11:16:42;14.80;;;8.83;;
28756;SDS011;44294;48.282;14.282;2023-01-04T11:19:29;13.73;;;8.80;;
28756;SDS011;44294;48.282;14.282;2023-01-04T11:22:20;11.77;;;7.40;;
28756;SDS011;44294;48.282;14.282;2023-01-04T11:25:09;15.97;;;9.70;;
28756;SDS011;44294;48.282;14.282;2023-01-04T11:28:01;21.87;;;12.27;;
28756;SDS011;44294;48.282;14.282;2023-01-04T11:31:11;13.40;;;8.27;;
28756;SDS011;44294;48.282;14.282;2023-01-04T11:33:57;14.50;;;8.30;;
28756;SDS011;44294;48.282;14.282;2023-01-04T11:36:45;12.40;;;7.93;;
28756;SDS011;44294;48.282;14.282;2023-01-04T11:39:33;13.23;;;8.37;;
28756;SDS011;44294;48.282;14.282;2023-01-04T11:42:20;16.83;;;8.50;;
28756;SDS011;44294;48.282;14.282;2023-01-04T11:45:21;14.23;;;8.33;;
28756;SDS011;44294;48.282;14.282;2023-01-04T11:48:09;15.87;;;9.20;;
28756;SDS011;44294;48.282;14.282;2023-01-04T11:50:58;14.67;;;8.30;;
28756;SDS011;44294;48.282;14.282;2023-01-04T11:53:49;15.43;;;8.83;;
28756;SDS011;44294;48.282;14.282;2023-01-04T11:56:35;13.13;;;7.80;;
28756;SDS011;44294;48.282;14.282;2023-01-04T11:59:22;14.00;;;8.30;;
28756;SDS011;44294;48.282;14.282;2023-01-04T12:02:20;14.43;;;8.47;;
28756;SDS011;44294;48.282;14.282;2023-01-04T12:05:15;15.93;;;9.23;;
28756;SDS011;44294;48.282;14.282;2023-01-04T12:07:59;16.63;;;9.80;;
28756;SDS011;44294;48.282;14.282;2023-01-04T12:10:47;15.83;;;9.20;;
28756;SDS011;44294;48.282;14.282;2023-01-04T12:13:34;15.87;;;8.60;;
28756;SDS011;44294;48.282;14.282;2023-01-04T12:16:26;15.97;;;9.33;;
28756;SDS011;44294;48.282;14.282;2023-01-04T12:19:15;17.70;;;10.10;;
28756;SDS011;44294;48.282;14.282;2023-01-04T12:22:03;15.70;;;9.40;;
28756;SDS011;44294;48.282;14.282;2023-01-04T12:24:52;17.83;;;9.77;;
28756;SDS011;44294;48.282;14.282;2023-01-04T12:27:45;17.83;;;10.10;;
28756;SDS011;44294;48.282;14.282;2023-01-04T12:30:36;16.63;;;9.73;;
28756;SDS011;44294;48.282;14.282;2023-01-04T12:39:29;15.77;;;9.57;;
28756;SDS011;44294;48.282;14.282;2023-01-04T12:42:16;14.80;;;8.90;;
28756;SDS011;44294;48.282;14.282;2023-01-04T12:45:08;16.40;;;9.93;;
28756;SDS011;44294;48.282;14.282;2023-01-04T12:47:53;17.93;;;10.67;;
28756;SDS011;44294;48.282;14.282;2023-01-04T12:54:04;16.13;;;9.73;;
28756;SDS011;44294;48.282;14.282;2023-01-04T12:57:20;18.07;;;11.37;;
28756;SDS011;44294;48.282;14.282;2023-01-04T13:00:12;17.70;;;10.57;;
28756;SDS011;44294;48.282;14.282;2023-01-04T13:03:46;18.33;;;10.93;;
28756;SDS011;44294;48.282;14.282;2023-01-04T13:05:54;17.07;;;10.30;;
28756;SDS011;44294;48.282;14.282;2023-01-04T13:08:41;17.50;;;9.57;;
28756;SDS011;44294;48.282;14.282;2023-01-04T13:11:44;20.07;;;11.30;;
28756;SDS011;44294;48.282;14.282;2023-01-04T13:14:42;20.93;;;12.73;;
28756;SDS011;44294;48.282;14.282;2023-01-04T13:17:26;24.90;;;13.77;;
28756;SDS011;44294;48.282;14.282;2023-01-04T13:20:16;28.13;;;14.63;;
28756;SDS011;44294;48.282;14.282;2023-01-04T13:23:03;31.43;;;16.50;;
28756;SDS011;44294;48.282;14.282;2023-01-04T13:25:51;23.30;;;13.43;;
28756;SDS011;44294;48.282;14.282;2023-01-04T13:28:38;24.23;;;13.67;;
28756;SDS011;44294;48.282;14.282;2023-01-04T13:31:26;21.53;;;12.27;;
28756;SDS011;44294;48.282;14.282;2023-01-04T13:40:03;21.93;;;12.40;;
28756;SDS011;44294;48.282;14.282;2023-01-04T13:45:58;19.43;;;11.47;;
28756;SDS011;44294;48.282;14.282;2023-01-04T13:48:46;19.93;;;12.47;;
28756;SDS011;44294;48.282;14.282;2023-01-04T13:51:34;20.33;;;12.60;;
28756;SDS011;44294;48.282;14.282;2023-01-04T13:54:22;20.03;;;11.87;;
28756;SDS011;44294;48.282;14.282;2023-01-04T13:57:10;21.63;;;12.70;;
28756;SDS011;44294;48.282;14.282;2023-01-04T13:59:57;22.90;;;12.97;;
28756;SDS011;44294;48.282;14.282;2023-01-04T14:02:44;23.80;;;13.70;;
28756;SDS011;44294;48.282;14.282;2023-01-04T14:05:32;23.63;;;12.73;;
28756;SDS011;44294;48.282;14.282;2023-01-04T14:08:26;17.83;;;11.13;;
28756;SDS011;44294;48.282;14.282;2023-01-04T14:11:16;23.67;;;13.00;;
28756;SDS011;44294;48.282;14.282;2023-01-04T14:14:00;24.77;;;14.00;;
28756;SDS011;44294;48.282;14.282;2023-01-04T14:16:48;20.57;;;12.33;;
28756;SDS011;44294;48.282;14.282;2023-01-04T14:28:33;25.43;;;14.33;;
28756;SDS011;44294;48.282;14.282;2023-01-04T14:31:28;26.40;;;14.53;;
28756;SDS011;44294;48.282;14.282;2023-01-04T14:34:12;27.23;;;15.17;;
28756;SDS011;44294;48.282;14.282;2023-01-04T14:37:03;25.60;;;14.53;;
28756;SDS011;44294;48.282;14.282;2023-01-04T14:39:50;21.33;;;12.93;;
28756;SDS011;44294;48.282;14.282;2023-01-04T14:42:37;26.37;;;14.50;;
28756;SDS011;44294;48.282;14.282;2023-01-04T14:45:25;26.00;;;14.97;;
28756;SDS011;44294;48.282;14.282;2023-01-04T14:48:12;24.83;;;13.77;;
28756;SDS011;44294;48.282;14.282;2023-01-04T14:50:59;26.70;;;14.80;;
28756;SDS011;44294;48.282;14.282;2023-01-04T14:53:47;26.80;;;15.80;;
28756;SDS011;44294;48.282;14.282;2023-01-04T14:56:34;23.07;;;13.77;;
28756;SDS011;44294;48.282;14.282;2023-01-04T14:59:22;22.83;;;13.33;;
28756;SDS011;44294;48.282;14.282;2023-01-04T15:02:12;21.40;;;12.57;;
28756;SDS011;44294;48.282;14.282;2023-01-04T15:04:58;21.90;;;13.10;;
28756;SDS011;44294;48.282;14.282;2023-01-04T15:07:46;22.13;;;13.10;;
28756;SDS011;44294;48.282;14.282;2023-01-04T15:10:33;23.97;;;12.87;;
28756;SDS011;44294;48.282;14.282;2023-01-04T15:13:20;21.77;;;12.83;;
28756;SDS011;44294;48.282;14.282;2023-01-04T15:16:09;19.80;;;11.77;;
28756;SDS011;44294;48.282;14.282;2023-01-04T15:18:56;22.63;;;12.87;;
28756;SDS011;44294;48.282;14.282;2023-01-04T15:21:44;29.53;;;17.23;;
28756;SDS011;44294;48.282;14.282;2023-01-04T15:24:31;21.27;;;12.83;;
28756;SDS011;44294;48.282;14.282;2023-01-04T15:27:18;21.90;;;13.03;;
28756;SDS011;44294;48.282;14.282;2023-01-04T15:30:06;19.87;;;12.40;;
28756;SDS011;44294;48.282;14.282;2023-01-04T15:32:53;18.80;;;11.90;;
28756;SDS011;44294;48.282;14.282;2023-01-04T15:35:41;17.77;;;11.80;;
28756;SDS011;44294;48.282;14.282;2023-01-04T15:38:28;17.50;;;11.40;;
28756;SDS011;44294;48.282;14.282;2023-01-04T15:41:16;19.13;;;11.70;;
28756;SDS011;44294;48.282;14.282;2023-01-04T15:44:22;20.47;;;11.73;;
28756;SDS011;44294;48.282;14.282;2023-01-04T15:47:10;21.67;;;12.30;;
28756;SDS011;44294;48.282;14.282;2023-01-04T15:49:57;20.70;;;12.43;;
28756;SDS011;44294;48.282;14.282;2023-01-04T15:52:44;21.67;;;13.17;;
28756;SDS011;44294;48.282;14.282;2023-01-04T15:55:32;21.07;;;12.50;;
28756;SDS011;44294;48.282;14.282;2023-01-04T15:58:20;23.47;;;14.50;;
28756;SDS011;44294;48.282;14.282;2023-01-04T16:01:08;22.13;;;13.23;;
28756;SDS011;44294;48.282;14.282;2023-01-04T16:03:56;20.27;;;12.07;;
28756;SDS011;44294;48.282;14.282;2023-01-04T16:06:43;21.13;;;12.67;;
28756;SDS011;44294;48.282;14.282;2023-01-04T16:09:30;20.10;;;12.70;;
28756;SDS011;44294;48.282;14.282;2023-01-04T16:12:17;19.77;;;12.23;;
28756;SDS011;44294;48.282;14.282;2023-01-04T16:15:23;18.87;;;11.97;;
28756;SDS011;44294;48.282;14.282;2023-01-04T16:18:10;19.80;;;12.40;;
28756;SDS011;44294;48.282;14.282;2023-01-04T16:20:58;19.67;;;12.50;;
28756;SDS011;44294;48.282;14.282;2023-01-04T16:23:52;21.00;;;12.27;;
28756;SDS011;44294;48.282;14.282;2023-01-04T16:26:39;23.17;;;12.77;;
28756;SDS011;44294;48.282;14.282;2023-01-04T16:29:26;27.97;;;15.83;;
28756;SDS011;44294;48.282;14.282;2023-01-04T16:32:14;21.13;;;13.00;;
28756;SDS011;44294;48.282;14.282;2023-01-04T16:35:01;20.00;;;12.53;;
28756;SDS011;44294;48.282;14.282;2023-01-04T16:37:48;20.57;;;12.63;;
28756;SDS011;44294;48.282;14.282;2023-01-04T16:40:36;21.63;;;12.80;;
28756;SDS011;44294;48.282;14.282;2023-01-04T16:43:24;19.27;;;12.40;;
28756;SDS011;44294;48.282;14.282;2023-01-04T16:49:02;20.53;;;13.07;;
28756;SDS011;44294;48.282;14.282;2023-01-04T16:51:49;22.70;;;13.03;;
28756;SDS011;44294;48.282;14.282;2023-01-04T16:54:36;20.97;;;13.13;;
28756;SDS011;44294;48.282;14.282;2023-01-04T16:57:24;23.00;;;12.77;;
28756;SDS011;44294;48.282;14.282;2023-01-04T17:00:11;22.00;;;13.10;;
28756;SDS011;44294;48.282;14.282;2023-01-04T17:02:59;21.27;;;13.03;;
28756;SDS011;44294;48.282;14.282;2023-01-04T17:05:46;20.37;;;13.00;;
28756;SDS011;44294;48.282;14.282;2023-01-04T17:08:33;21.93;;;13.50;;
28756;SDS011;44294;48.282;14.282;2023-01-04T17:11:22;23.20;;;13.80;;
28756;SDS011;44294;48.282;14.282;2023-01-04T17:14:09;21.83;;;13.33;;
28756;SDS011;44294;48.282;14.282;2023-01-04T17:16:59;20.70;;;13.00;;
28756;SDS011;44294;48.282;14.282;2023-01-04T17:19:48;22.33;;;13.07;;
28756;SDS011;44294;48.282;14.282;2023-01-04T17:22:35;21.43;;;12.07;;
28756;SDS011;44294;48.282;14.282;2023-01-04T17:25:22;21.93;;;13.00;;
28756;SDS011;44294;48.282;14.282;2023-01-04T17:28:10;25.33;;;15.30;;
28756;SDS011;44294;48.282;14.282;2023-01-04T17:30:57;21.77;;;13.73;;